createdAt,value
2018-07-15T00:00:49.695Z,19.22
2018-07-15T00:01:49.758Z,19.19
2018-07-15T00:02:49.793Z,19.23
2018-07-15T00:03:49.752Z,19.19
2018-07-15T00:04:49.885Z,19.21
2018-07-15T00:05:49.787Z,19.10
2018-07-15T00:06:49.789Z,19.19
2018-07-15T00:07:49.813Z,19.14
2018-07-15T00:08:49.822Z,19.25
2018-07-15T00:09:49.839Z,19.22
2018-07-15T00:10:49.865Z,19.19
2018-07-15T00:11:49.872Z,19.11
2018-07-15T00:12:49.906Z,19.19
2018-07-15T00:13:49.909Z,19.14
2018-07-15T00:14:49.923Z,19.11
2018-07-15T00:15:49.937Z,19.16
2018-07-15T00:16:49.964Z,19.08
2018-07-15T00:17:49.982Z,18.98
2018-07-15T00:18:49.987Z,18.95
2018-07-15T00:19:50.003Z,18.91
2018-07-15T00:20:50.020Z,18.99
2018-07-15T00:21:50.036Z,19.00
2018-07-15T00:22:50.057Z,18.88
2018-07-15T00:23:50.068Z,18.87
2018-07-15T00:24:50.085Z,18.90
2018-07-15T00:25:50.101Z,18.88
2018-07-15T00:26:50.118Z,18.88
2018-07-15T00:27:50.137Z,18.90
2018-07-15T00:28:50.152Z,18.87
2018-07-15T00:29:50.170Z,18.90
2018-07-15T00:30:50.182Z,18.78
2018-07-15T00:31:50.212Z,18.78
2018-07-15T00:32:50.215Z,18.73
2018-07-15T00:33:50.234Z,18.73
2018-07-15T00:34:50.253Z,18.70
2018-07-15T00:35:50.266Z,18.73
2018-07-15T00:36:50.334Z,18.72
2018-07-15T00:37:50.425Z,18.60
2018-07-15T00:38:50.516Z,18.65
2018-07-15T00:39:50.336Z,18.69
2018-07-15T00:40:50.349Z,18.58
2018-07-15T00:41:50.368Z,18.57
2018-07-15T00:42:50.382Z,18.57
2018-07-15T00:43:50.419Z,18.57
2018-07-15T00:44:50.421Z,18.54
2018-07-15T00:45:50.427Z,18.57
2018-07-15T00:46:50.447Z,18.52
2018-07-15T00:47:50.464Z,18.57
2018-07-15T00:48:50.481Z,18.57
2018-07-15T00:49:50.494Z,18.50
2018-07-15T00:50:50.510Z,18.67
2018-07-15T00:51:50.530Z,18.60
2018-07-15T00:52:50.545Z,18.55
2018-07-15T00:53:50.567Z,18.58
2018-07-15T00:54:50.587Z,18.58
2018-07-15T00:55:50.595Z,18.54
2018-07-15T00:56:50.650Z,18.50
2018-07-15T00:57:50.652Z,18.52
2018-07-15T00:58:50.642Z,18.44
2018-07-15T00:59:50.660Z,18.33
2018-07-15T01:00:50.674Z,18.33
2018-07-15T01:01:51.002Z,18.30
2018-07-15T01:02:50.710Z,18.33
2018-07-15T01:03:50.723Z,18.35
2018-07-15T01:04:50.742Z,18.32
2018-07-15T01:05:50.768Z,18.30
2018-07-15T01:06:50.772Z,18.32
2018-07-15T01:07:50.812Z,18.30
2018-07-15T01:08:50.822Z,18.30
2018-07-15T01:09:50.836Z,18.35
2018-07-15T01:10:50.843Z,18.30
2018-07-15T01:11:50.853Z,18.30
2018-07-15T01:12:51.024Z,18.27
2018-07-15T01:13:50.909Z,18.25
2018-07-15T01:14:50.903Z,18.21
2018-07-15T01:15:50.919Z,18.15
2018-07-15T01:16:50.940Z,18.11
2018-07-15T01:17:50.955Z,18.17
2018-07-15T01:18:51.000Z,18.23
2018-07-15T01:19:50.984Z,18.25
2018-07-15T01:20:51.002Z,18.21
2018-07-15T01:21:51.018Z,18.33
2018-07-15T01:22:51.032Z,18.18
2018-07-15T01:23:51.048Z,18.21
2018-07-15T01:24:51.076Z,18.14
2018-07-15T01:25:51.079Z,18.14
2018-07-15T01:26:51.097Z,18.11
2018-07-15T01:27:51.115Z,18.17
2018-07-15T01:28:51.133Z,18.07
2018-07-15T01:29:51.146Z,18.14
2018-07-15T01:30:51.189Z,18.11
2018-07-15T01:31:51.177Z,18.10
2018-07-15T01:32:51.196Z,18.10
2018-07-15T01:33:51.213Z,18.11
2018-07-15T01:34:51.226Z,18.07
2018-07-15T01:35:51.244Z,18.05
2018-07-15T01:36:51.264Z,17.97
2018-07-15T01:37:51.278Z,18.00
2018-07-15T01:38:51.292Z,17.92
2018-07-15T01:39:51.308Z,18.03
2018-07-15T01:40:51.326Z,17.95
2018-07-15T01:41:51.342Z,17.93
2018-07-15T01:43:51.549Z,17.90
2018-07-15T01:44:51.434Z,17.81
2018-07-15T01:45:51.401Z,17.86
2018-07-15T01:46:51.420Z,17.92
2018-07-15T01:47:51.458Z,17.92
2018-07-15T01:48:51.451Z,17.89
2018-07-15T01:49:51.475Z,17.95
2018-07-15T01:50:51.488Z,17.86
2018-07-15T01:51:51.501Z,17.87
2018-07-15T01:52:51.521Z,17.92
2018-07-15T01:53:51.532Z,17.81
2018-07-15T01:54:51.548Z,17.82
2018-07-15T01:55:51.590Z,17.81
2018-07-15T01:56:51.599Z,17.74
2018-07-15T01:57:51.597Z,17.74
2018-07-15T01:58:51.652Z,17.70
2018-07-15T01:59:51.652Z,17.72
2018-07-15T02:00:51.708Z,17.71
2018-07-15T02:01:51.689Z,17.66
2018-07-15T02:02:51.756Z,17.70
2018-07-15T02:03:51.694Z,17.70
2018-07-15T02:04:51.729Z,17.68
2018-07-15T02:05:51.738Z,17.68
2018-07-15T02:06:51.748Z,17.68
2018-07-15T02:07:51.793Z,17.64
2018-07-15T02:08:51.779Z,17.75
2018-07-15T02:09:51.850Z,17.58
2018-07-15T02:10:51.807Z,17.59
2018-07-15T02:11:51.823Z,17.59
2018-07-15T02:12:51.841Z,17.56
2018-07-15T02:13:51.867Z,17.59
2018-07-15T02:14:51.871Z,17.58
2018-07-15T02:15:52.084Z,17.58
2018-07-15T02:16:51.938Z,17.54
2018-07-15T02:17:51.921Z,17.49
2018-07-15T02:18:51.950Z,17.46
2018-07-15T02:19:51.953Z,17.49
2018-07-15T02:20:51.967Z,17.49
2018-07-15T02:21:51.985Z,17.44
2018-07-15T02:22:52.000Z,17.54
2018-07-15T02:23:52.017Z,17.48
2018-07-15T02:24:52.035Z,17.43
2018-07-15T02:25:52.078Z,17.46
2018-07-15T02:26:52.062Z,17.43
2018-07-15T02:27:52.081Z,17.41
2018-07-15T02:28:52.094Z,17.46
2018-07-15T02:29:52.102Z,17.38
2018-07-15T02:30:52.121Z,17.48
2018-07-15T02:31:52.148Z,17.51
2018-07-15T02:32:52.152Z,17.37
2018-07-15T02:33:52.167Z,17.37
2018-07-15T02:34:52.197Z,17.33
2018-07-15T02:35:52.277Z,17.26
2018-07-15T02:36:52.229Z,17.34
2018-07-15T02:37:52.233Z,17.33
2018-07-15T02:38:52.248Z,17.36
2018-07-15T02:39:52.264Z,17.25
2018-07-15T02:40:52.285Z,17.34
2018-07-15T02:41:52.294Z,17.25
2018-07-15T02:42:52.312Z,17.19
2018-07-15T02:43:52.328Z,17.19
2018-07-15T02:44:52.344Z,17.22
2018-07-15T02:45:52.358Z,17.07
2018-07-15T02:46:52.373Z,17.06
2018-07-15T02:48:52.459Z,17.11
2018-07-15T02:49:52.789Z,17.06
2018-07-15T02:50:52.449Z,17.06
2018-07-15T02:51:52.454Z,17.11
2018-07-15T02:52:52.471Z,17.04
2018-07-15T02:53:52.483Z,17.07
2018-07-15T02:54:52.503Z,17.14
2018-07-15T02:55:52.518Z,17.07
2018-07-15T02:56:52.536Z,17.03
2018-07-15T02:57:52.549Z,17.01
2018-07-15T02:58:52.566Z,16.96
2018-07-15T02:59:52.585Z,17.00
2018-07-15T03:00:52.604Z,16.96
2018-07-15T03:01:52.611Z,16.94
2018-07-15T03:02:52.640Z,16.91
2018-07-15T03:03:52.647Z,16.97
2018-07-15T03:04:52.661Z,16.98
2018-07-15T03:05:52.682Z,16.96
2018-07-15T03:06:52.693Z,16.91
2018-07-15T03:07:52.709Z,16.94
2018-07-15T03:08:52.725Z,16.86
2018-07-15T03:09:52.739Z,17.01
2018-07-15T03:10:52.754Z,16.89
2018-07-15T03:11:52.776Z,16.93
2018-07-15T03:12:52.808Z,16.81
2018-07-15T03:13:52.804Z,16.79
2018-07-15T03:14:52.822Z,16.83
2018-07-15T03:15:52.835Z,16.81
2018-07-15T03:16:52.853Z,16.75
2018-07-15T03:17:52.870Z,16.83
2018-07-15T03:18:52.885Z,16.85
2018-07-15T03:19:52.905Z,16.82
2018-07-15T03:20:52.915Z,16.82
2018-07-15T03:21:52.990Z,16.83
2018-07-15T03:22:53.097Z,16.85
2018-07-15T03:23:52.963Z,16.83
2018-07-15T03:24:52.978Z,16.78
2018-07-15T03:25:52.996Z,16.75
2018-07-15T03:26:53.009Z,16.75
2018-07-15T03:27:53.029Z,16.75
2018-07-15T03:28:53.040Z,16.76
2018-07-15T03:29:53.057Z,16.85
2018-07-15T03:30:53.072Z,16.76
2018-07-15T03:31:53.087Z,16.79
2018-07-15T03:32:53.104Z,16.83
2018-07-15T03:33:53.119Z,16.88
2018-07-15T03:34:53.140Z,16.76
2018-07-15T03:35:53.151Z,16.88
2018-07-15T03:36:53.167Z,16.73
2018-07-15T03:37:53.199Z,16.76
2018-07-15T03:38:53.201Z,16.76
2018-07-15T03:39:53.233Z,16.70
2018-07-15T03:40:53.231Z,16.76
2018-07-15T03:41:53.244Z,16.75
2018-07-15T03:42:53.265Z,16.68
2018-07-15T03:43:53.294Z,16.76
2018-07-15T03:44:53.332Z,16.67
2018-07-15T03:45:53.313Z,16.63
2018-07-15T03:46:53.325Z,16.64
2018-07-15T03:47:53.352Z,16.64
2018-07-15T03:48:53.355Z,16.63
2018-07-15T03:49:53.371Z,16.67
2018-07-15T03:50:53.394Z,16.64
2018-07-15T03:51:53.405Z,16.63
2018-07-15T03:52:53.419Z,16.64
2018-07-15T03:53:53.434Z,16.67
2018-07-15T03:54:53.555Z,16.61
2018-07-15T03:55:53.904Z,16.63
2018-07-15T03:56:53.482Z,16.67
2018-07-15T03:57:53.502Z,16.64
2018-07-15T03:58:53.521Z,16.60
2018-07-15T03:59:53.566Z,16.66
2018-07-15T04:00:53.608Z,16.68
2018-07-15T04:01:53.560Z,16.64
2018-07-15T04:02:53.576Z,16.58
2018-07-15T04:03:53.593Z,16.60
2018-07-15T04:04:53.612Z,16.52
2018-07-15T04:05:53.623Z,16.56
2018-07-15T04:06:53.640Z,16.49
2018-07-15T04:07:53.672Z,16.56
2018-07-15T04:08:53.794Z,16.60
2018-07-15T04:09:53.686Z,16.58
2018-07-15T04:10:53.703Z,16.46
2018-07-15T04:11:53.722Z,16.49
2018-07-15T04:12:53.741Z,16.42
2018-07-15T04:13:53.755Z,16.46
2018-07-15T04:14:53.764Z,16.41
2018-07-15T04:15:53.780Z,16.42
2018-07-15T04:16:53.809Z,16.42
2018-07-15T04:17:53.833Z,16.43
2018-07-15T04:18:53.827Z,16.35
2018-07-15T04:19:53.855Z,16.42
2018-07-15T04:20:53.858Z,16.45
2018-07-15T04:21:53.874Z,16.46
2018-07-15T04:22:53.889Z,16.42
2018-07-15T04:23:53.905Z,16.48
2018-07-15T04:24:54.023Z,16.41
2018-07-15T04:25:54.197Z,16.46
2018-07-15T04:26:53.979Z,16.52
2018-07-15T04:27:53.969Z,16.46
2018-07-15T04:28:53.984Z,16.46
2018-07-15T04:29:54.010Z,16.46
2018-07-15T04:30:54.015Z,16.49
2018-07-15T04:31:54.033Z,16.46
2018-07-15T04:32:54.047Z,16.56
2018-07-15T04:33:54.063Z,16.56
2018-07-15T04:34:54.081Z,16.49
2018-07-15T04:35:54.095Z,16.49
2018-07-15T04:36:54.112Z,16.50
2018-07-15T04:37:54.172Z,16.58
2018-07-15T04:38:54.142Z,16.64
2018-07-15T04:39:54.156Z,16.63
2018-07-15T04:40:54.181Z,16.68
2018-07-15T04:41:54.188Z,16.83
2018-07-15T04:42:54.221Z,16.76
2018-07-15T04:43:54.332Z,16.86
2018-07-15T04:44:54.235Z,16.82
2018-07-15T04:45:54.252Z,16.76
2018-07-15T04:46:54.265Z,16.79
2018-07-15T04:47:54.293Z,16.86
2018-07-15T04:48:54.311Z,16.85
2018-07-15T04:49:54.312Z,16.88
2018-07-15T04:50:54.329Z,16.88
2018-07-15T04:51:54.344Z,16.88
2018-07-15T04:52:54.360Z,16.78
2018-07-15T04:53:54.389Z,16.81
2018-07-15T04:54:54.393Z,16.82
2018-07-15T04:55:54.409Z,16.79
2018-07-15T04:56:54.426Z,16.85
2018-07-15T04:57:54.441Z,16.79
2018-07-15T04:58:54.455Z,16.89
2018-07-15T04:59:54.480Z,16.96
2018-07-15T05:00:54.492Z,16.93
2018-07-15T05:01:54.529Z,17.11
2018-07-15T05:02:54.519Z,17.04
2018-07-15T05:03:54.534Z,17.03
2018-07-15T05:04:54.552Z,17.06
2018-07-15T05:05:54.566Z,17.15
2018-07-15T05:06:54.586Z,17.18
2018-07-15T05:07:54.597Z,17.11
2018-07-15T05:08:54.613Z,17.03
2018-07-15T05:09:54.628Z,17.06
2018-07-15T05:10:54.646Z,17.07
2018-07-15T05:11:54.660Z,17.07
2018-07-15T05:12:54.676Z,17.18
2018-07-15T05:13:54.693Z,17.19
2018-07-15T05:14:54.708Z,17.19
2018-07-15T05:15:54.723Z,17.21
2018-07-15T05:16:54.738Z,17.19
2018-07-15T05:18:54.787Z,17.19
2018-07-15T05:19:54.787Z,17.26
2018-07-15T05:20:54.836Z,17.30
2018-07-15T05:21:54.821Z,17.36
2018-07-15T05:22:54.834Z,17.37
2018-07-15T05:23:54.848Z,17.41
2018-07-15T05:24:54.927Z,17.41
2018-07-15T05:25:54.885Z,17.38
2018-07-15T05:26:54.899Z,17.37
2018-07-15T05:27:54.913Z,17.34
2018-07-15T05:28:54.929Z,17.38
2018-07-15T05:29:54.944Z,17.41
2018-07-15T05:30:54.974Z,17.44
2018-07-15T05:31:55.010Z,17.62
2018-07-15T05:32:55.007Z,17.52
2018-07-15T05:33:55.049Z,17.48
2018-07-15T05:34:55.043Z,17.55
2018-07-15T05:35:55.048Z,17.63
2018-07-15T05:36:55.055Z,17.59
2018-07-15T05:37:55.074Z,17.68
2018-07-15T05:38:55.085Z,17.71
2018-07-15T05:39:55.107Z,17.64
2018-07-15T05:40:55.118Z,17.66
2018-07-15T05:41:55.134Z,17.66
2018-07-15T05:42:55.149Z,17.72
2018-07-15T05:43:55.165Z,17.68
2018-07-15T05:44:55.184Z,17.71
2018-07-15T05:45:55.202Z,17.68
2018-07-15T05:46:55.217Z,17.82
2018-07-15T05:47:55.234Z,17.87
2018-07-15T05:48:55.246Z,17.86
2018-07-15T05:49:55.259Z,17.86
2018-07-15T05:50:55.294Z,17.93
2018-07-15T05:51:55.354Z,18.05
2018-07-15T05:52:55.316Z,18.18
2018-07-15T05:53:55.324Z,18.10
2018-07-15T05:54:55.345Z,18.17
2018-07-15T05:55:55.361Z,18.23
2018-07-15T05:56:55.382Z,18.26
2018-07-15T05:57:55.448Z,18.25
2018-07-15T05:58:55.404Z,18.27
2018-07-15T05:59:55.433Z,18.30
2018-07-15T06:00:55.441Z,18.29
2018-07-15T06:01:55.467Z,18.25
2018-07-15T06:02:55.465Z,18.27
2018-07-15T06:03:55.498Z,18.30
2018-07-15T06:04:55.528Z,18.35
2018-07-15T06:05:55.522Z,18.33
2018-07-15T06:06:55.556Z,18.35
2018-07-15T06:07:55.547Z,18.33
2018-07-15T06:08:55.575Z,18.32
2018-07-15T06:09:55.577Z,18.36
2018-07-15T06:10:55.596Z,18.55
2018-07-15T06:11:55.610Z,18.54
2018-07-15T06:12:55.630Z,18.52
2018-07-15T06:13:55.643Z,18.62
2018-07-15T06:14:55.655Z,18.67
2018-07-15T06:15:55.682Z,18.70
2018-07-15T06:16:55.689Z,18.72
2018-07-15T06:17:55.703Z,18.70
2018-07-15T06:18:55.727Z,18.75
2018-07-15T06:19:55.744Z,18.76
2018-07-15T06:20:55.754Z,18.76
2018-07-15T06:21:55.769Z,18.75
2018-07-15T06:22:55.792Z,18.80
2018-07-15T06:23:55.801Z,18.75
2018-07-15T06:24:55.816Z,18.72
2018-07-15T06:25:55.833Z,18.80
2018-07-15T06:26:55.848Z,18.81
2018-07-15T06:27:55.869Z,18.80
2018-07-15T06:28:55.887Z,18.84
2018-07-15T06:29:55.896Z,18.84
2018-07-15T06:30:55.919Z,18.85
2018-07-15T06:31:56.026Z,19.06
2018-07-15T06:32:55.945Z,19.04
2018-07-15T06:33:55.967Z,19.06
2018-07-15T06:34:55.974Z,19.28
2018-07-15T06:35:55.998Z,19.26
2018-07-15T06:36:56.011Z,19.31
2018-07-15T06:37:56.077Z,19.32
2018-07-15T06:38:56.091Z,19.36
2018-07-15T06:39:56.062Z,19.29
2018-07-15T06:40:56.085Z,19.39
2018-07-15T06:41:56.090Z,19.37
2018-07-15T06:42:56.162Z,19.36
2018-07-15T06:43:56.123Z,19.33
2018-07-15T06:44:56.143Z,19.43
2018-07-15T06:45:56.154Z,19.47
2018-07-15T06:46:56.168Z,19.55
2018-07-15T06:47:56.190Z,19.63
2018-07-15T06:48:56.218Z,19.62
2018-07-15T06:49:56.246Z,19.63
2018-07-15T06:50:56.281Z,19.65
2018-07-15T06:51:56.257Z,19.63
2018-07-15T06:52:56.269Z,19.66
2018-07-15T06:53:56.313Z,19.62
2018-07-15T06:54:56.297Z,19.62
2018-07-15T06:55:56.340Z,19.65
2018-07-15T06:56:56.329Z,19.65
2018-07-15T06:57:56.348Z,19.66
2018-07-15T06:58:56.361Z,19.63
2018-07-15T06:59:56.376Z,19.62
2018-07-15T07:00:56.393Z,19.66
2018-07-15T07:01:56.412Z,19.66
2018-07-15T07:02:56.427Z,19.71
2018-07-15T07:03:56.455Z,19.80
2018-07-15T07:04:56.473Z,19.78
2018-07-15T07:05:56.548Z,19.86
2018-07-15T07:06:56.503Z,19.91
2018-07-15T07:07:56.517Z,19.86
2018-07-15T07:08:56.524Z,19.92
2018-07-15T07:09:56.544Z,19.88
2018-07-15T07:10:56.556Z,19.92
2018-07-15T07:11:56.604Z,19.96
2018-07-15T07:12:56.639Z,20.01
2018-07-15T07:13:56.618Z,20.03
2018-07-15T07:14:56.827Z,20.10
2018-07-15T07:15:56.637Z,20.17
2018-07-15T07:16:56.668Z,20.11
2018-07-15T07:17:56.675Z,20.17
2018-07-15T07:18:56.688Z,20.16
2018-07-15T07:19:56.708Z,20.24
2018-07-15T07:20:56.718Z,20.26
2018-07-15T07:21:56.737Z,20.24
2018-07-15T07:22:56.749Z,20.14
2018-07-15T07:23:56.773Z,20.26
2018-07-15T07:24:56.791Z,20.35
2018-07-15T07:25:56.797Z,20.32
2018-07-15T07:26:56.822Z,20.32
2018-07-15T07:27:56.832Z,20.38
2018-07-15T07:28:56.915Z,20.39
2018-07-15T07:29:56.862Z,20.35
2018-07-15T07:30:56.879Z,20.47
2018-07-15T07:31:56.897Z,20.41
2018-07-15T07:32:56.917Z,20.47
2018-07-15T07:33:56.929Z,20.48
2018-07-15T07:34:56.946Z,20.48
2018-07-15T07:35:56.976Z,20.58
2018-07-15T07:36:56.974Z,20.55
2018-07-15T07:37:57.002Z,20.64
2018-07-15T07:38:57.006Z,20.66
2018-07-15T07:39:57.028Z,20.72
2018-07-15T07:40:57.041Z,20.79
2018-07-15T07:41:57.057Z,20.70
2018-07-15T07:42:57.094Z,20.88
2018-07-15T07:43:57.093Z,20.82
2018-07-15T07:44:57.112Z,20.87
2018-07-15T07:45:57.120Z,20.87
2018-07-15T07:46:57.264Z,20.95
2018-07-15T07:47:57.166Z,20.85
2018-07-15T07:48:57.170Z,20.89
2018-07-15T07:49:57.188Z,20.85
2018-07-15T07:50:57.202Z,20.91
2018-07-15T07:51:57.221Z,20.94
2018-07-15T07:52:57.247Z,20.92
2018-07-15T07:53:57.267Z,20.88
2018-07-15T07:54:57.268Z,20.91
2018-07-15T07:55:57.286Z,20.91
2018-07-15T07:56:57.300Z,20.94
2018-07-15T07:57:57.321Z,20.94
2018-07-15T07:58:57.338Z,21.06
2018-07-15T07:59:57.366Z,21.13
2018-07-15T08:00:57.366Z,21.17
2018-07-15T08:01:57.405Z,21.24
2018-07-15T08:02:57.419Z,21.25
2018-07-15T08:03:57.420Z,21.24
2018-07-15T08:04:57.437Z,21.25
2018-07-15T08:05:57.450Z,21.35
2018-07-15T08:06:57.466Z,21.29
2018-07-15T08:07:57.484Z,21.40
2018-07-15T08:08:57.501Z,21.40
2018-07-15T08:09:57.513Z,21.40
2018-07-15T08:10:57.530Z,21.37
2018-07-15T08:11:57.551Z,21.27
2018-07-15T08:12:57.567Z,21.40
2018-07-15T08:13:57.581Z,21.46
2018-07-15T08:14:57.597Z,21.40
2018-07-15T08:15:57.625Z,21.42
2018-07-15T08:16:57.639Z,21.43
2018-07-15T08:17:57.644Z,21.40
2018-07-15T08:18:57.663Z,21.46
2018-07-15T08:19:57.698Z,21.53
2018-07-15T08:20:57.765Z,21.65
2018-07-15T08:21:57.743Z,21.69
2018-07-15T08:22:57.730Z,21.71
2018-07-15T08:23:57.837Z,21.68
2018-07-15T08:24:57.789Z,21.71
2018-07-15T08:25:57.783Z,21.82
2018-07-15T08:26:57.907Z,21.79
2018-07-15T08:27:57.820Z,21.80
2018-07-15T08:28:57.860Z,21.80
2018-07-15T08:29:57.844Z,21.77
2018-07-15T08:30:57.865Z,21.83
2018-07-15T08:31:57.877Z,21.88
2018-07-15T08:32:57.898Z,21.82
2018-07-15T08:33:57.909Z,21.80
2018-07-15T08:34:57.958Z,21.83
2018-07-15T08:35:57.945Z,21.84
2018-07-15T08:36:57.957Z,21.75
2018-07-15T08:37:57.994Z,21.77
2018-07-15T08:38:57.996Z,21.79
2018-07-15T08:39:58.010Z,21.96
2018-07-15T08:40:58.031Z,22.02
2018-07-15T08:41:58.041Z,22.06
2018-07-15T08:42:58.056Z,21.96
2018-07-15T08:43:58.074Z,22.06
2018-07-15T08:44:58.118Z,22.24
2018-07-15T08:45:58.176Z,22.18
2018-07-15T08:46:58.136Z,22.24
2018-07-15T08:47:58.144Z,22.25
2018-07-15T08:48:58.156Z,22.21
2018-07-15T08:49:58.171Z,22.33
2018-07-15T08:50:58.383Z,22.25
2018-07-15T08:51:58.280Z,22.20
2018-07-15T08:52:58.235Z,22.27
2018-07-15T08:53:58.256Z,22.37
2018-07-15T08:54:58.263Z,22.42
2018-07-15T08:55:58.279Z,22.43
2018-07-15T08:56:58.292Z,22.33
2018-07-15T08:57:58.304Z,22.39
2018-07-15T08:58:58.333Z,22.33
2018-07-15T08:59:58.360Z,22.33
2018-07-15T09:00:58.365Z,22.37
2018-07-15T09:01:58.376Z,22.37
2018-07-15T09:02:58.393Z,22.58
2018-07-15T09:03:58.408Z,22.51
2018-07-15T09:04:58.425Z,22.58
2018-07-15T09:05:58.443Z,22.55
2018-07-15T09:06:58.487Z,22.55
2018-07-15T09:07:58.475Z,22.60
2018-07-15T09:08:58.491Z,22.58
2018-07-15T09:09:58.505Z,22.60
2018-07-15T09:10:58.531Z,22.61
2018-07-15T09:11:58.540Z,22.67
2018-07-15T09:12:58.555Z,22.60
2018-07-15T09:13:58.619Z,22.64
2018-07-15T09:14:58.591Z,22.61
2018-07-15T09:15:58.608Z,22.72
2018-07-15T09:16:58.626Z,22.67
2018-07-15T09:17:58.640Z,22.73
2018-07-15T09:18:58.656Z,22.80
2018-07-15T09:19:58.672Z,22.82
2018-07-15T09:20:58.749Z,22.77
2018-07-15T09:21:58.715Z,22.94
2018-07-15T09:22:58.726Z,22.98
2018-07-15T09:23:58.757Z,23.05
2018-07-15T09:24:58.758Z,23.07
2018-07-15T09:25:58.955Z,23.04
2018-07-15T09:26:58.866Z,23.04
2018-07-15T09:27:58.947Z,23.13
2018-07-15T09:28:58.904Z,23.09
2018-07-15T09:29:58.851Z,23.15
2018-07-15T09:30:58.874Z,23.09
2018-07-15T09:31:58.874Z,23.09
2018-07-15T09:32:58.898Z,23.12
2018-07-15T09:33:58.915Z,23.20
2018-07-15T09:34:58.940Z,23.10
2018-07-15T09:35:58.944Z,23.20
2018-07-15T09:36:58.960Z,23.16
2018-07-15T09:37:59.012Z,23.13
2018-07-15T09:38:58.992Z,23.22
2018-07-15T09:39:59.019Z,23.32
2018-07-15T09:40:59.024Z,23.28
2018-07-15T09:41:59.042Z,23.42
2018-07-15T09:42:59.070Z,23.47
2018-07-15T09:43:59.077Z,23.57
2018-07-15T09:44:59.101Z,23.58
2018-07-15T09:45:59.114Z,23.65
2018-07-15T09:46:59.123Z,23.72
2018-07-15T09:47:59.138Z,23.68
2018-07-15T09:48:59.156Z,23.72
2018-07-15T09:49:59.183Z,23.79
2018-07-15T09:50:59.211Z,23.88
2018-07-15T09:51:59.206Z,23.73
2018-07-15T09:52:59.232Z,23.65
2018-07-15T09:53:59.396Z,23.70
2018-07-15T09:54:59.396Z,23.87
2018-07-15T09:55:59.274Z,23.83
2018-07-15T09:56:59.292Z,23.78
2018-07-15T09:57:59.316Z,23.87
2018-07-15T09:58:59.323Z,23.91
2018-07-15T09:59:59.342Z,23.83
2018-07-15T10:00:59.359Z,23.84
2018-07-15T10:01:59.404Z,23.87
2018-07-15T10:02:59.423Z,23.95
2018-07-15T10:03:59.425Z,23.98
2018-07-15T10:04:59.436Z,23.94
2018-07-15T10:05:59.445Z,23.95
2018-07-15T10:06:59.460Z,23.98
2018-07-15T10:07:59.482Z,24.15
2018-07-15T10:08:59.496Z,24.16
2018-07-15T10:09:59.511Z,24.21
2018-07-15T10:10:59.528Z,24.30
2018-07-15T10:11:59.565Z,24.37
2018-07-15T10:12:59.562Z,24.35
2018-07-15T10:13:59.579Z,24.40
2018-07-15T10:14:59.599Z,24.46
2018-07-15T10:15:59.611Z,24.43
2018-07-15T10:16:59.630Z,24.34
2018-07-15T10:17:59.646Z,24.31
2018-07-15T10:18:59.735Z,24.35
2018-07-15T10:19:59.685Z,24.42
2018-07-15T10:20:59.705Z,24.39
2018-07-15T10:21:59.729Z,24.35
2018-07-15T10:22:59.773Z,24.34
2018-07-15T10:23:59.752Z,24.42
2018-07-15T10:24:59.773Z,24.45
2018-07-15T10:25:59.937Z,24.47
2018-07-15T10:26:59.871Z,24.60
2018-07-15T10:27:59.840Z,24.49
2018-07-15T10:28:59.835Z,24.53
2018-07-15T10:29:59.852Z,24.58
2018-07-15T10:30:59.869Z,24.58
2018-07-15T10:31:59.895Z,24.62
2018-07-15T10:32:59.950Z,24.65
2018-07-15T10:33:59.919Z,24.64
2018-07-15T10:34:59.953Z,24.67
2018-07-15T10:35:59.956Z,24.81
2018-07-15T10:36:59.975Z,24.87
2018-07-15T10:37:59.991Z,24.99
2018-07-15T10:39:00.068Z,24.99
2018-07-15T10:40:00.027Z,25.05
2018-07-15T10:41:00.053Z,25.10
2018-07-15T10:42:00.079Z,25.08
2018-07-15T10:43:00.083Z,25.06
2018-07-15T10:44:00.098Z,25.09
2018-07-15T10:45:00.114Z,25.18
2018-07-15T10:46:00.142Z,25.30
2018-07-15T10:47:00.146Z,25.06
2018-07-15T10:48:00.169Z,25.10
2018-07-15T10:49:00.184Z,25.10
2018-07-15T10:50:00.217Z,25.08
2018-07-15T10:51:00.224Z,25.20
2018-07-15T10:52:00.236Z,25.25
2018-07-15T10:53:00.317Z,25.35
2018-07-15T10:54:00.267Z,25.45
2018-07-15T10:55:00.311Z,25.42
2018-07-15T10:56:00.300Z,25.38
2018-07-15T10:57:00.320Z,25.40
2018-07-15T10:58:00.451Z,25.42
2018-07-15T10:59:00.364Z,25.47
2018-07-15T11:00:00.373Z,25.64
2018-07-15T11:01:00.484Z,25.58
2018-07-15T11:02:00.417Z,25.51
2018-07-15T11:03:00.434Z,25.60
2018-07-15T11:04:00.444Z,25.50
2018-07-15T11:05:00.460Z,25.40
2018-07-15T11:06:00.544Z,25.36
2018-07-15T11:07:00.505Z,25.42
2018-07-15T11:08:00.531Z,25.43
2018-07-15T11:09:00.551Z,25.54
2018-07-15T11:10:00.563Z,25.55
2018-07-15T11:11:00.570Z,25.69
2018-07-15T11:12:00.581Z,25.72
2018-07-15T11:13:00.601Z,25.70
2018-07-15T11:14:00.625Z,25.87
2018-07-15T11:15:00.655Z,25.80
2018-07-15T11:16:00.688Z,25.88
2018-07-15T11:17:00.679Z,25.92
2018-07-15T11:18:00.699Z,25.94
2018-07-15T11:19:00.788Z,25.75
2018-07-15T11:20:00.736Z,25.91
2018-07-15T11:21:00.876Z,26.01
2018-07-15T11:22:00.895Z,25.97
2018-07-15T11:23:00.788Z,26.06
2018-07-15T11:24:00.807Z,26.05
2018-07-15T11:25:00.825Z,25.94
2018-07-15T11:26:00.907Z,25.91
2018-07-15T11:27:00.865Z,25.85
2018-07-15T11:28:00.889Z,25.58
2018-07-15T11:29:00.985Z,25.51
2018-07-15T11:30:00.924Z,25.47
2018-07-15T11:31:01.036Z,25.47
2018-07-15T11:32:00.970Z,25.77
2018-07-15T11:33:01.086Z,25.85
2018-07-15T11:34:01.112Z,25.99
2018-07-15T11:35:01.332Z,26.13
2018-07-15T11:36:01.075Z,26.10
2018-07-15T11:37:01.056Z,25.77
2018-07-15T11:38:01.075Z,25.77
2018-07-15T11:39:01.178Z,25.79
2018-07-15T11:40:01.162Z,25.92
2018-07-15T11:41:01.135Z,25.91
2018-07-15T11:42:01.155Z,25.72
2018-07-15T11:43:01.201Z,25.70
2018-07-15T11:44:01.198Z,25.73
2018-07-15T11:45:01.215Z,25.76
2018-07-15T11:47:01.262Z,25.97
2018-07-15T11:48:01.285Z,26.07
2018-07-15T11:49:01.291Z,26.25
2018-07-15T11:50:01.350Z,26.51
2018-07-15T11:51:01.329Z,26.65
2018-07-15T11:52:01.350Z,26.60
2018-07-15T11:53:01.372Z,26.63
2018-07-15T11:54:01.400Z,26.72
2018-07-15T11:55:01.409Z,26.80
2018-07-15T11:56:01.440Z,26.72
2018-07-15T11:57:01.498Z,26.82
2018-07-15T11:58:01.467Z,26.76
2018-07-15T11:59:01.517Z,26.81
2018-07-15T12:00:01.523Z,26.80
2018-07-15T12:01:01.552Z,26.80
2018-07-15T12:02:01.590Z,26.48
2018-07-15T12:03:01.565Z,26.43
2018-07-15T12:04:01.593Z,26.37
2018-07-15T12:05:01.608Z,26.36
2018-07-15T12:06:01.637Z,26.30
2018-07-15T12:07:01.652Z,26.35
2018-07-15T12:08:01.692Z,26.54
2018-07-15T12:09:02.115Z,26.58
2018-07-15T12:10:01.709Z,26.73
2018-07-15T12:11:01.791Z,26.84
2018-07-15T12:12:01.767Z,27.04
2018-07-15T12:13:01.768Z,27.06
2018-07-15T12:14:01.786Z,27.22
2018-07-15T12:15:01.807Z,27.24
2018-07-15T12:16:01.889Z,27.39
2018-07-15T12:17:01.857Z,27.28
2018-07-15T12:18:01.886Z,27.36
2018-07-15T12:19:01.899Z,27.40
2018-07-15T12:20:01.907Z,27.44
2018-07-15T12:21:01.929Z,27.57
2018-07-15T12:22:01.954Z,27.55
2018-07-15T12:23:01.968Z,27.55
2018-07-15T12:24:01.987Z,27.65
2018-07-15T12:25:02.018Z,27.70
2018-07-15T12:26:02.025Z,27.67
2018-07-15T12:27:02.056Z,27.81
2018-07-15T12:28:02.081Z,27.79
2018-07-15T12:29:02.102Z,27.66
2018-07-15T12:30:02.111Z,27.66
2018-07-15T12:31:02.133Z,27.60
2018-07-15T12:32:02.148Z,27.69
2018-07-15T12:33:02.176Z,27.74
2018-07-15T12:34:02.201Z,27.41
2018-07-15T12:35:02.253Z,27.40
2018-07-15T12:36:02.258Z,27.40
2018-07-15T12:37:02.264Z,27.57
2018-07-15T12:38:02.290Z,27.55
2018-07-15T12:39:02.301Z,27.65
2018-07-15T12:40:02.326Z,27.67
2018-07-15T12:41:02.363Z,27.70
2018-07-15T12:42:02.371Z,27.82
2018-07-15T12:43:02.418Z,27.87
2018-07-15T12:44:02.417Z,28.06
2018-07-15T12:45:02.471Z,28.09
2018-07-15T12:46:02.438Z,28.00
2018-07-15T12:47:02.473Z,27.94
2018-07-15T12:48:02.481Z,27.85
2018-07-15T12:49:02.501Z,27.78
2018-07-15T12:50:02.533Z,27.85
2018-07-15T12:51:02.548Z,27.85
2018-07-15T12:52:02.585Z,27.97
2018-07-15T12:53:02.593Z,28.15
2018-07-15T12:54:02.615Z,28.21
2018-07-15T12:55:02.640Z,28.41
2018-07-15T12:56:02.689Z,28.68
2018-07-15T12:57:02.699Z,28.78